M I D A S
Marine Information and Data Acquisition System
Tripno 1707 of the Zeeleeuw from 2009-06-08 08:01:10 to 2009-06-08 14:49:19
Back to CruiseResearch ActivitiesStationsMapUnderway DataData graphs

EquipmentUnitsComment
TimeDGPSUTC
LatitudeDGPSDM.mWGS84
LongitudeDGPSDM.mWGS84
TemperatureSBE03/SBE38deg celciusITS90
ConductivitySBE21S/mITS90
SalinitySBE21 Practical Salinity Units
ChlorophylAChelsea fluorimeterg/lCalibrated in Aceton
Missing or incorrect values are displayed as -999
Sea surface data collected by the RV Zeeleeuw from 2009-06-08 07:07:44 to 2009-06-08 14:58:17
Time Latitude Longitude Temperature Conductivity Salinity ChlorophylA
2009-06-08 07:08:49 51°13.662 2°55.962 19.2823 0.063304 0.350949 -0.304087
2009-06-08 07:09:49 51°13.662 2°55.962 19.2871 0.063304 0.351 -0.304087
2009-06-08 07:10:49 51°13.662 2°55.961 19.2979 0.063304 0.35105 -0.269263
2009-06-08 07:11:49 51°13.662 2°55.961 19.3011 0.063304 0.351107 -0.269263
2009-06-08 07:12:49 51°13.662 2°55.961 19.3099 0.063304 0.351158 -0.269263
2009-06-08 07:13:49 51°13.661 2°55.961 19.3162 0.063304 0.351209 -0.269263
2009-06-08 07:14:49 51°13.661 2°55.961 19.3315 0.063304 0.351266 -0.304087
2009-06-08 07:15:49 51°13.661 2°55.961 19.3444 0.063304 0.351316 -0.304087
2009-06-08 07:16:49 51°13.661 2°55.961 19.3426 0.063304 0.351367 -0.304087
2009-06-08 07:17:49 51°13.662 2°55.961 19.3502 0.063304 0.351418 -0.269263
2009-06-08 07:18:49 51°13.662 2°55.962 19.3533 0.063304 0.351469 -0.269263
2009-06-08 07:19:49 51°13.662 2°55.962 19.3624 0.063201 0.35093 -0.304087
2009-06-08 07:20:49 51°13.661 2°55.96 19.3649 0.063201 0.350981 -0.304087
2009-06-08 07:21:49 51°13.661 2°55.961 19.374 0.063201 0.351032 -0.304087
2009-06-08 07:22:49 51°13.662 2°55.963 19.3815 0.063201 0.351082 -0.304087
2009-06-08 07:23:49 51°13.662 2°55.963 19.3863 0.063201 0.351133 -0.304087
2009-06-08 07:24:49 51°13.662 2°55.961 19.3954 0.063201 0.351184 -0.269263
2009-06-08 07:25:49 51°13.662 2°55.961 19.401 0.063201 0.351235 -0.304087
2009-06-08 07:26:49 51°13.661 2°55.961 19.4041 0.063201 0.351285 -0.304087
2009-06-08 07:27:49 51°13.661 2°55.961 19.4144 0.063201 0.351336 -0.269263
2009-06-08 07:28:49 51°13.662 2°55.961 19.4209 0.063201 0.351387 -0.304087
2009-06-08 07:29:49 51°13.662 2°55.961 19.4303 0.063201 0.351432 -0.304087
2009-06-08 07:30:49 51°13.664 2°55.964 19.4382 0.063201 0.351483 -0.304087
2009-06-08 07:31:49 51°13.662 2°55.961 19.4452 0.063098 0.350943 -0.304087
2009-06-08 07:32:49 51°13.659 2°55.959 19.4518 0.063098 0.350988 -0.304087
2009-06-08 07:33:49 51°13.66 2°55.96 19.46 0.063098 0.351045 -0.304087
2009-06-08 07:34:49 51°13.661 2°55.961 19.464 0.063098 0.351089 -0.304087
2009-06-08 07:35:49 51°13.662 2°55.962 19.4768 0.063098 0.35114 -0.304087
2009-06-08 07:36:49 51°13.663 2°55.963 19.4867 0.063098 0.351185 -0.304087
2009-06-08 07:37:49 51°13.663 2°55.963 19.4893 0.063098 0.351229 -0.304087
2009-06-08 07:38:49 51°13.663 2°55.963 19.4936 0.063098 0.35128 -0.304087
2009-06-08 07:39:49 51°13.663 2°55.962 19.5021 0.063098 0.351325 -0.304087
2009-06-08 07:40:49 51°13.662 2°55.962 19.5067 0.063098 0.351376 -0.304087
2009-06-08 07:41:49 51°13.663 2°55.963 19.519 0.063098 0.35142 -0.304087
2009-06-08 07:42:49 51°13.664 2°55.964 19.5256 0.063098 0.351465 -0.304087
2009-06-08 07:43:49 51°13.664 2°55.964 19.5319 0.063098 0.351516 -0.304087
2009-06-08 07:44:49 51°13.664 2°55.964 19.5391 0.063098 0.351561 -0.304087
2009-06-08 07:45:49 51°13.662 2°55.961 19.5543 0.063098 0.351612 -0.304087
2009-06-08 07:46:49 51°13.662 2°55.961 19.566 0.062996 0.351065 -0.304087
2009-06-08 07:47:46 51°13.662 2°55.961 19.5686 0.062996 0.351116 -0.304087
2009-06-08 07:48:45 51°13.661 2°55.961 19.5755 0.062996 0.35116 -0.304087
2009-06-08 07:49:45 51°13.663 2°55.962 19.5864 0.062996 0.351205 -0.304087
2009-06-08 07:50:45 51°13.661 2°55.962 19.6005 0.062996 0.351256 -0.304087
2009-06-08 07:51:46 51°13.662 2°55.963 19.6075 0.062996 0.351301 -0.304087
2009-06-08 07:52:45 51°13.66 2°55.962 19.6126 0.062996 0.351345 -0.304087
2009-06-08 07:53:46 51°13.66 2°55.962 19.6159 0.062996 0.35139 -0.304087
2009-06-08 07:54:46 51°13.66 2°55.961 19.6233 0.062996 0.351435 -0.304087
2009-06-08 07:55:45 51°13.66 2°55.961 19.6272 0.062996 0.35148 -0.304087
2009-06-08 07:56:45 51°13.659 2°55.961 19.6364 0.062996 0.351524 -0.304087
2009-06-08 07:57:45 51°13.659 2°55.96 19.6498 0.062996 0.351569 -0.304087
2009-06-08 07:58:46 51°13.66 2°55.961 19.6576 0.062996 0.351614 -0.304087
2009-06-08 07:59:46 51°13.66 2°55.962 19.6802 0.062893 0.351066 -0.304087
2009-06-08 08:00:46 51°13.659 2°55.962 19.6538 0.062893 0.351111 -0.304087
2009-06-08 08:01:49 51°13.672 2°55.923 19.6857 0.062893 0.351156 -0.304087
2009-06-08 08:02:49 51°13.69 2°55.839 19.703 0.062893 0.351207 -0.304087
2009-06-08 08:03:49 51°13.698 2°55.763 19.7024 0.062893 0.351239 -0.304087
2009-06-08 08:04:47 51°13.701 2°55.742 19.7085 0.062893 0.351283 -0.304087
2009-06-08 08:05:46 51°13.709 2°55.745 19.6856 0.062893 0.351322 -0.304087
2009-06-08 08:06:46 51°13.703 2°55.739 19.7366 0.062893 0.351347 -0.338911
2009-06-08 08:07:46 51°13.765 2°55.684 19.7313 0.062893 0.351488 -0.304087
2009-06-08 08:08:45 51°13.874 2°55.597 19.744 0.062893 0.351443 -0.338911
2009-06-08 08:09:46 51°14 2°55.504 19.7436 0.062893 0.351463 -0.304087
2009-06-08 08:10:46 51°14.126 2°55.415 19.7749 0.062893 0.351533 -0.304087
2009-06-08 08:11:45 51°14.244 2°55.297 19.78 0.062893 0.351571 -0.304087
2009-06-08 08:12:45 51°14.357 2°55.123 19.7844 0.062893 0.351616 -0.304087
2009-06-08 08:13:46 51°14.453 2°54.889 19.7658 0.062893 0.351661 -0.338911
2009-06-08 08:14:46 51°14.57 2°54.649 19.7486 0.062893 0.351655 -0.304087
2009-06-08 08:15:45 51°14.724 2°54.481 19.7709 0.062893 0.351802 -0.304087
2009-06-08 08:16:46 51°14.889 2°54.321 19.7875 0.062893 0.351783 -0.304087
2009-06-08 08:17:46 51°15.042 2°54.15 19.8009 0.06279 0.351241 -0.304087
2009-06-08 08:18:46 51°15.194 2°53.978 19.8029 0.06279 0.351285 -0.304087
2009-06-08 08:19:45 51°15.348 2°53.815 19.8138 0.06279 0.351337 -0.304087
2009-06-08 08:20:45 51°15.509 2°53.656 19.8094 0.06279 0.351382 -0.304087
2009-06-08 08:21:46 51°15.675 2°53.498 19.8099 0.06279 0.351433 -0.304087
2009-06-08 08:22:46 51°15.839 2°53.341 19.8184 0.06279 0.351484 -0.338911
2009-06-08 08:23:46 51°16.003 2°53.181 19.8322 0.06279 0.351536 -0.338911
2009-06-08 08:24:45 51°16.164 2°53.025 19.8333 0.06279 0.351581 -0.304087
2009-06-08 08:25:46 51°16.338 2°52.897 19.8417 0.06279 0.351632 -0.338911
2009-06-08 08:26:45 51°16.51 2°52.793 19.8546 0.06279 0.351683 -0.304087
2009-06-08 08:27:45 51°16.686 2°52.697 19.8628 0.06279 0.351728 -0.304087
2009-06-08 08:28:46 51°16.861 2°52.598 19.8502 0.06279 0.351786 -0.338911
2009-06-08 08:29:45 51°17.033 2°52.536 19.8829 0.06279 0.351838 -0.304087
2009-06-08 08:30:46 51°17.211 2°52.503 19.8869 0.06279 0.351883 -0.304087
2009-06-08 08:31:46 51°17.385 2°52.514 19.8838 0.06279 0.351921 -0.304087
2009-06-08 08:32:46 51°17.534 2°52.645 19.8886 0.06279 0.351979 -0.338911
2009-06-08 08:33:45 51°17.644 2°52.849 19.9004 0.062687 0.351436 -0.269263
2009-06-08 08:34:46 51°17.738 2°53.084 19.9158 0.062687 0.351468 -0.304087
2009-06-08 08:35:46 51°17.784 2°53.353 19.9042 0.062687 0.351539 -0.304087
2009-06-08 08:36:45 51°17.831 2°53.618 19.9205 0.062687 0.35159 -0.338911
2009-06-08 08:37:46 51°17.89 2°53.886 19.9197 0.062687 0.351648 -0.304087
2009-06-08 08:38:45 51°17.959 2°54.135 19.9521 0.062687 0.351687 -0.338911
2009-06-08 08:39:46 51°18.06 2°54.364 19.938 0.062687 0.351719 -0.304087
2009-06-08 08:40:45 51°18.167 2°54.577 19.9393 0.062687 0.351751 -0.304087
2009-06-08 08:41:45 51°18.279 2°54.788 19.9647 0.062687 0.35179 -0.304087
2009-06-08 08:42:45 51°18.393 2°54.997 19.9695 0.062687 0.351835 -0.304087
2009-06-08 08:43:45 51°18.507 2°55.206 19.9771 0.062687 0.351874 -0.304087
2009-06-08 08:44:46 51°18.62 2°55.422 19.9986 0.062687 0.351919 -0.338911
2009-06-08 08:45:45 51°18.733 2°55.626 20.0009 0.062687 0.351958 -0.338911
2009-06-08 08:46:45 51°18.846 2°55.836 20.0142 0.062687 0.351983 -0.304087
2009-06-08 08:47:45 51°18.958 2°56.046 20.0124 0.062584 0.351426 -0.304087
2009-06-08 08:48:45 51°19.07 2°56.254 20.0237 0.062584 0.351458 -0.304087
2009-06-08 08:49:46 51°19.186 2°56.463 20.0376 0.062584 0.351497 -0.338911
2009-06-08 08:50:45 51°19.299 2°56.66 20.0403 0.062584 0.351529 -0.304087
2009-06-08 08:51:45 51°19.414 2°56.864 20.0524 0.062584 0.351568 -0.304087
2009-06-08 08:52:45 51°19.523 2°57.074 20.0515 0.062584 0.351606 -0.304087
2009-06-08 08:53:45 51°19.635 2°57.279 20.0652 0.062584 0.351639 -0.338911
2009-06-08 08:54:45 51°19.746 2°57.485 20.0728 0.062584 0.351671 -0.338911
2009-06-08 08:55:46 51°19.86 2°57.692 20.0812 0.062584 0.351703 -0.304087
2009-06-08 08:56:45 51°19.973 2°57.89 20.0914 0.062584 0.351742 -0.304087
2009-06-08 08:57:46 51°20.09 2°58.096 20.0769 0.062584 0.351774 -0.338911
2009-06-08 08:58:45 51°20.202 2°58.293 20.1126 0.062584 0.3518 -0.338911
2009-06-08 08:59:46 51°20.316 2°58.504 20.113 0.062584 0.351832 -0.304087
2009-06-08 09:00:45 51°20.428 2°58.705 20.1252 0.062584 0.351865 -0.304087
2009-06-08 09:01:46 51°20.544 2°58.914 20.1302 0.062584 0.351897 -0.304087
2009-06-08 09:02:46 51°20.66 2°59.118 20.1208 0.062584 0.351923 -0.304087
2009-06-08 09:03:46 51°20.775 2°59.327 20.1365 0.062584 0.351949 -0.338911
2009-06-08 09:04:46 51°20.89 2°59.537 20.1591 0.062584 0.351988 -0.304087
2009-06-08 09:05:46 51°21.007 2°59.747 20.162 0.062584 0.35202 -0.304087
2009-06-08 09:06:46 51°21.123 2°59.961 20.173 0.062584 0.352046 -0.338911
2009-06-08 09:07:46 51°21.237 3°0.179 20.1648 0.062584 0.352078 -0.304087
2009-06-08 09:08:46 51°21.353 3°0.395 20.1862 0.062584 0.352111 -0.304087
2009-06-08 09:09:46 51°21.466 3°0.61 20.2094 0.062584 0.352137 -0.478207
2009-06-08 09:10:46 51°21.586 3°0.817 20.2084 0.062481 0.351565 -0.547855
2009-06-08 09:11:46 51°21.71 3°1.016 20.2106 0.062481 0.351591 -0.58268
2009-06-08 09:12:46 51°21.835 3°1.212 20.2199 0.062481 0.35163 -0.58268
2009-06-08 09:13:46 51°21.956 3°1.414 20.2274 0.062481 0.351649 -0.547855
2009-06-08 09:14:46 51°22.079 3°1.615 20.2462 0.062481 0.351681 -0.513031
2009-06-08 09:15:46 51°22.201 3°1.819 20.2541 0.062481 0.351701 -0.478207
2009-06-08 09:16:46 51°22.326 3°2.024 20.2512 0.062481 0.351733 -0.373735
2009-06-08 09:17:46 51°22.447 3°2.226 20.2552 0.062481 0.351766 -0.304087
2009-06-08 09:18:46 51°22.568 3°2.43 20.2874 0.062481 0.351791 -0.164791
2009-06-08 09:19:46 51°22.669 3°2.601 20.274 0.062481 0.351824 -0.060319
2009-06-08 09:20:46 51°22.724 3°2.694 20.294 0.062481 0.35185 0.113802
2009-06-08 09:21:46 51°22.766 3°2.763 20.3058 0.062481 0.351869 0.253098
2009-06-08 09:22:46 51°22.795 3°2.809 20.3118 0.062481 0.351902 0.427218
2009-06-08 09:23:46 51°22.815 3°2.839 20.3283 0.062481 0.351928 0.566514
2009-06-08 09:24:46 51°22.83 3°2.861 20.3213 0.062481 0.351953 0.670986
2009-06-08 09:25:46 51°22.842 3°2.878 20.3219 0.062481 0.351979 0.775459
2009-06-08 09:26:46 51°22.852 3°2.89 20.3543 0.062481 0.352005 0.845107
2009-06-08 09:27:46 51°22.857 3°2.897 20.3562 0.062481 0.352031 0.914755
2009-06-08 09:28:46 51°22.858 3°2.899 20.3539 0.062481 0.352044 0.949579
2009-06-08 09:29:46 51°22.857 3°2.899 20.3598 0.062481 0.35207 0.984403
2009-06-08 09:30:46 51°22.854 3°2.898 20.3608 0.062481 0.352083 0.984403
2009-06-08 09:31:46 51°22.85 3°2.894 20.3828 0.062481 0.352103 0.984403
2009-06-08 09:32:46 51°22.844 3°2.893 20.3828 0.062481 0.352116 1.019227
2009-06-08 09:33:46 51°22.837 3°2.888 20.3857 0.062481 0.352129 1.019227
2009-06-08 09:34:46 51°22.83 3°2.884 20.3994 0.062481 0.352142 1.019227
2009-06-08 09:35:46 51°22.823 3°2.878 20.3913 0.062481 0.352155 1.019227
2009-06-08 09:36:46 51°22.816 3°2.873 20.4188 0.062481 0.352174 1.019227
2009-06-08 09:37:46 51°22.809 3°2.868 20.4315 0.062481 0.352018 1.019227
2009-06-08 09:38:46 51°22.801 3°2.862 20.4268 0.062481 0.351921 1.054051
2009-06-08 09:39:46 51°22.792 3°2.856 20.4496 0.062481 0.351947 1.088875
2009-06-08 09:40:46 51°22.782 3°2.851 20.4452 0.062481 0.352057 1.088875
2009-06-08 09:41:46 51°22.772 3°2.847 20.458 0.062481 0.352083 1.088875
2009-06-08 09:42:46 51°22.763 3°2.843 20.4632 0.062481 0.352083 1.088875
2009-06-08 09:43:46 51°22.754 3°2.84 20.4719 0.062481 0.352148 1.088875
2009-06-08 09:44:46 51°22.744 3°2.839 20.4839 0.062481 0.352109 1.123699
2009-06-08 09:45:46 51°22.733 3°2.838 20.4879 0.062481 0.352142 1.158523
2009-06-08 09:46:46 51°22.722 3°2.838 20.4984 0.062481 0.352219 1.123699
2009-06-08 09:47:46 51°22.71 3°2.838 20.4972 0.062481 0.352258 1.123699
2009-06-08 09:48:46 51°22.699 3°2.84 20.5216 0.062481 0.35231 1.123699
2009-06-08 09:49:46 51°22.699 3°2.835 20.5005 0.062481 0.352297 1.158523
2009-06-08 09:50:46 51°22.683 3°2.834 20.5346 0.062481 0.352408 1.123699
2009-06-08 09:51:46 51°22.668 3°2.834 20.5221 0.062378 0.351854 1.123699
2009-06-08 09:52:46 51°22.654 3°2.835 20.5225 0.062378 0.351919 1.123699
2009-06-08 09:53:46 51°22.641 3°2.835 20.5285 0.062378 0.351965 1.123699
2009-06-08 09:54:46 51°22.628 3°2.836 20.5455 0.062378 0.351984 1.123699
2009-06-08 09:55:46 51°22.616 3°2.837 20.5583 0.062378 0.35203 1.123699
2009-06-08 09:56:46 51°22.604 3°2.839 20.5584 0.062378 0.352088 1.123699
2009-06-08 09:57:46 51°22.593 3°2.841 20.5788 0.062378 0.352166 1.123699
2009-06-08 09:58:46 51°22.583 3°2.843 20.5666 0.062378 0.35214 1.123699
2009-06-08 09:59:46 51°22.585 3°2.85 20.6014 0.062378 0.352134 1.158523
2009-06-08 10:00:46 51°22.604 3°2.859 20.5829 0.062378 0.352179 1.158523
2009-06-08 10:01:46 51°22.628 3°2.865 20.5981 0.062378 0.352205 1.158523
2009-06-08 10:02:46 51°22.641 3°2.866 20.606 0.062378 0.352192 1.193347
2009-06-08 10:03:46 51°22.65 3°2.866 20.6281 0.062378 0.352244 1.158523
2009-06-08 10:04:46 51°22.654 3°2.865 20.6403 0.062378 0.352303 1.193347
2009-06-08 10:05:46 51°22.656 3°2.864 20.644 0.062378 0.352316 1.193347
2009-06-08 10:06:46 51°22.655 3°2.864 20.6324 0.062378 0.352342 1.193347
2009-06-08 10:07:46 51°22.654 3°2.864 20.6464 0.062378 0.352375 1.193347
2009-06-08 10:08:46 51°22.653 3°2.864 20.6615 0.062378 0.352459 1.193347
2009-06-08 10:09:46 51°22.65 3°2.863 20.6508 0.062378 0.35242 1.228171
2009-06-08 10:10:46 51°22.647 3°2.864 20.6747 0.062378 0.352512 1.228171
2009-06-08 10:11:46 51°22.643 3°2.865 20.6832 0.062275 0.351886 1.228171
2009-06-08 10:12:46 51°22.639 3°2.867 20.6989 0.062275 0.351977 1.228171
2009-06-08 10:13:46 51°22.635 3°2.87 20.7018 0.062275 0.351964 1.262995
2009-06-08 10:14:46 51°22.63 3°2.873 20.7017 0.062275 0.352048 1.228171
2009-06-08 10:15:46 51°22.625 3°2.876 20.7009 0.062275 0.352068 1.228171
2009-06-08 10:16:46 51°22.62 3°2.879 20.7024 0.062275 0.352113 1.262995
2009-06-08 10:17:46 51°22.615 3°2.882 20.7208 0.062275 0.35214 1.228171
2009-06-08 10:18:46 51°22.61 3°2.886 20.7272 0.062275 0.352113 1.228171
2009-06-08 10:19:46 51°22.605 3°2.891 20.7343 0.062275 0.352185 1.262995
2009-06-08 10:20:46 51°22.6 3°2.898 20.7398 0.062275 0.352224 1.297819
2009-06-08 10:21:46 51°22.596 3°2.905 20.7397 0.062275 0.352244 1.297819
2009-06-08 10:22:46 51°22.591 3°2.912 20.738 0.062275 0.352283 1.297819
2009-06-08 10:23:46 51°22.587 3°2.919 20.7627 0.062275 0.352257 1.297819
2009-06-08 10:24:46 51°22.582 3°2.927 20.767 0.062275 0.35242 1.297819
2009-06-08 10:25:46 51°22.577 3°2.936 20.7735 0.062275 0.352401 1.297819
2009-06-08 10:26:46 51°22.573 3°2.946 20.7634 0.062275 0.352459 1.297819
2009-06-08 10:27:46 51°22.568 3°2.957 20.7868 0.062275 0.352459 1.332643
2009-06-08 10:28:46 51°22.563 3°2.968 20.7722 0.062275 0.352479 1.332643
2009-06-08 10:29:46 51°22.558 3°2.98 20.7855 0.062275 0.352544 1.332643
2009-06-08 10:30:47 51°22.554 3°2.991 20.8002 0.062275 0.352577 1.332643
2009-06-08 10:31:46 51°22.549 3°3.005 20.8052 0.062275 0.352616 1.332643
2009-06-08 10:32:46 51°22.545 3°3.018 20.8064 0.062172 0.352093 1.332643
2009-06-08 10:33:47 51°22.544 3°3.029 20.8293 0.062172 0.352087 1.367467
2009-06-08 10:34:46 51°22.56 3°3.026 20.8339 0.062172 0.352139 1.332643
2009-06-08 10:35:46 51°22.589 3°3.003 20.8217 0.062172 0.3521 1.367467
2009-06-08 10:36:46 51°22.623 3°2.966 20.8518 0.062172 0.352191 1.367467
2009-06-08 10:37:46 51°22.65 3°2.927 20.8553 0.062172 0.352244 1.367467
2009-06-08 10:38:46 51°22.675 3°2.892 20.8486 0.062172 0.352257 1.367467
2009-06-08 10:39:46 51°22.691 3°2.861 20.8726 0.062172 0.352224 1.402292
2009-06-08 10:40:46 51°22.705 3°2.84 20.8649 0.062172 0.352217 1.402292
2009-06-08 10:41:46 51°22.712 3°2.833 20.8756 0.062172 0.352296 1.402292
2009-06-08 10:42:46 51°22.719 3°2.831 20.8798 0.062172 0.352374 1.402292
2009-06-08 10:43:46 51°22.721 3°2.834 20.8908 0.062172 0.352361 1.437116
2009-06-08 10:44:46 51°22.722 3°2.841 20.8937 0.062172 0.352486 1.367467
2009-06-08 10:45:46 51°22.72 3°2.85 20.8862 0.062172 0.352518 1.402292
2009-06-08 10:46:46 51°22.717 3°2.864 20.8939 0.062172 0.352499 1.402292
2009-06-08 10:47:46 51°22.712 3°2.878 20.8989 0.062172 0.352545 1.437116
2009-06-08 10:48:46 51°22.706 3°2.895 20.913 0.062172 0.352545 1.402292
2009-06-08 10:49:46 51°22.701 3°2.915 20.9193 0.062172 0.352591 1.402292
2009-06-08 10:50:46 51°22.694 3°2.937 20.9251 0.062172 0.352649 1.402292
2009-06-08 10:51:46 51°22.687 3°2.962 20.9297 0.062172 0.352715 1.402292
2009-06-08 10:52:46 51°22.68 3°2.988 20.9314 0.062172 0.352735 1.402292
2009-06-08 10:53:46 51°22.673 3°3.016 20.9387 0.062172 0.352761 1.402292
2009-06-08 10:54:46 51°22.666 3°3.043 20.9427 0.062069 0.352178 1.402292
2009-06-08 10:55:46 51°22.66 3°3.071 20.9473 0.062069 0.352204 1.402292
2009-06-08 10:56:46 51°22.651 3°3.1 20.9561 0.062069 0.35225 1.402292
2009-06-08 10:57:46 51°22.644 3°3.129 20.9618 0.062069 0.352309 1.402292
2009-06-08 10:58:46 51°22.635 3°3.162 20.9789 0.062069 0.352421 1.402292
2009-06-08 10:59:46 51°22.626 3°3.194 20.9835 0.062069 0.352421 1.367467
2009-06-08 11:00:46 51°22.619 3°3.225 20.9734 0.062069 0.352467 1.367467
2009-06-08 11:01:46 51°22.61 3°3.256 20.9852 0.062069 0.352453 1.367467
2009-06-08 11:02:46 51°22.602 3°3.287 20.9854 0.062069 0.352453 1.402292
2009-06-08 11:03:46 51°22.595 3°3.318 21.0006 0.062069 0.352519 1.367467
2009-06-08 11:04:46 51°22.587 3°3.349 21.0025 0.062069 0.352552 1.402292
2009-06-08 11:05:46 51°22.58 3°3.381 21.0016 0.062069 0.352572 1.367467
2009-06-08 11:06:46 51°22.577 3°3.42 21.0097 0.062069 0.352618 1.402292
2009-06-08 11:07:46 51°22.583 3°3.462 21.0181 0.062069 0.352604 1.402292
2009-06-08 11:08:46 51°22.596 3°3.493 21.0173 0.062069 0.352565 1.402292
2009-06-08 11:09:46 51°22.608 3°3.511 21.0252 0.062069 0.352539 1.437116
2009-06-08 11:10:46 51°22.614 3°3.514 21.0424 0.062069 0.352552 1.437116
2009-06-08 11:11:46 51°22.617 3°3.506 21.0372 0.062069 0.352598 1.437116
2009-06-08 11:12:46 51°22.623 3°3.491 16.5972 2.909111 20.211113 2.969374
2009-06-08 11:13:46 51°22.633 3°3.473 16.2145 4.078053 31.617277 3.422087
2009-06-08 11:14:46 51°22.643 3°3.453 16.1776 4.047562 31.641611 3.422087
2009-06-08 11:15:46 51°22.652 3°3.432 16.1261 4.045696 31.658954 3.561383
2009-06-08 11:16:46 51°22.662 3°3.411 16.0989 4.029931 31.560817 3.665855
2009-06-08 11:17:46 51°22.674 3°3.349 16.1121 4.036362 31.633799 3.561383
2009-06-08 11:18:46 51°22.673 3°3.203 16.1497 4.043622 31.673882 3.526559
2009-06-08 11:19:46 51°22.694 3°3.03 16.0884 4.042585 31.662881 3.874799
2009-06-08 11:20:46 51°22.722 3°2.879 16.0479 4.030762 31.613368 4.466808
2009-06-08 11:21:46 51°22.688 3°2.838 16.1044 4.027132 31.588111 4.536456
2009-06-08 11:22:46 51°22.667 3°2.863 16.1351 4.036154 31.632634 4.466808
2009-06-08 11:23:46 51°22.66 3°2.902 16.1628 4.039369 31.630276 4.292688
2009-06-08 11:24:45 51°22.653 3°2.944 16.1441 4.042273 31.650448 4.327512
2009-06-08 11:25:46 51°22.645 3°2.991 16.1297 4.040614 31.650208 4.536456
2009-06-08 11:26:47 51°22.62 3°3.025 16.1245 4.038644 31.648548 4.745401
2009-06-08 11:27:46 51°22.6 3°3.022 16.135 4.03937 31.644522 4.675753
2009-06-08 11:28:46 51°22.598 3°3.006 16.1348 4.038955 31.640899 4.501632
2009-06-08 11:29:46 51°22.598 3°2.998 16.1421 4.037917 31.627956 4.606104
2009-06-08 11:30:46 51°22.597 3°3.001 16.1281 4.039888 31.648403 4.536456
2009-06-08 11:31:46 51°22.597 3°3.014 16.1194 4.036258 31.621881 4.39716
2009-06-08 11:32:46 51°22.599 3°3.03 16.1285 4.038436 31.651274 4.327512
2009-06-08 11:33:46 51°22.602 3°3.046 16.1655 4.035221 31.607645 4.014096
2009-06-08 11:34:46 51°22.601 3°3.09 16.1622 4.043622 31.657684 3.874799
2009-06-08 11:35:46 51°22.599 3°3.15 16.153 4.043829 31.665972 4.014096
2009-06-08 11:36:46 51°22.599 3°3.206 16.1255 4.043414 31.666237 4.04892
2009-06-08 11:37:46 51°22.602 3°3.247 16.0805 4.040096 31.672911 4.501632
2009-06-08 11:38:46 51°22.605 3°3.266 16.0717 4.037607 31.673872 4.466808
2009-06-08 11:39:46 51°22.608 3°3.247 16.0934 4.037607 31.672573 4.39716
2009-06-08 11:40:46 51°22.611 3°3.223 16.1035 4.038748 31.676055 4.466808
2009-06-08 11:41:46 51°22.614 3°3.207 16.1019 4.039992 31.672653 4.257864
2009-06-08 11:42:45 51°22.616 3°3.201 16.0672 4.037711 31.666987 4.118568
2009-06-08 11:43:45 51°22.617 3°3.205 16.0435 4.033873 31.655503 4.118568
2009-06-08 11:44:45 51°22.619 3°3.215 16.0264 4.030866 31.648024 4.153392
2009-06-08 11:45:46 51°22.618 3°3.231 16.0232 4.02931 31.642205 4.188216
2009-06-08 11:46:46 51°22.618 3°3.254 16.0226 4.028273 31.635724 4.188216
2009-06-08 11:47:46 51°22.618 3°3.281 16.0355 4.027028 31.628077 4.014096
2009-06-08 11:48:45 51°22.618 3°3.312 16.0727 4.027858 31.613263 3.735503
2009-06-08 11:49:46 51°22.619 3°3.346 16.0991 4.030036 31.60702 3.665855
2009-06-08 11:50:45 51°22.62 3°3.379 16.1194 4.031487 31.601572 3.596207
2009-06-08 11:51:46 51°22.621 3°3.396 16.1473 4.032835 31.595873 3.526559
2009-06-08 11:52:46 51°22.623 3°3.401 16.2029 4.03522 31.589539 3.387263
2009-06-08 11:53:46 51°22.627 3°3.395 16.2204 4.039057 31.58362 3.247966
2009-06-08 11:54:46 51°22.629 3°3.378 16.1963 4.03968 31.584529 3.28279
2009-06-08 11:55:46 51°22.631 3°3.355 16.1676 4.037191 31.586706 3.526559
2009-06-08 11:56:46 51°22.628 3°3.329 16.1389 4.034494 31.587081 4.118568
2009-06-08 11:57:46 51°22.625 3°3.301 16.0954 4.03128 31.581639 4.39716
2009-06-08 11:58:46 51°22.622 3°3.271 16.0694 4.027546 31.579432 4.815049
2009-06-08 11:59:46 51°22.618 3°3.245 16.0467 4.025368 31.57982 5.023993
2009-06-08 12:00:46 51°22.617 3°3.237 16.0275 4.023709 31.580212 5.058817
2009-06-08 12:01:46 51°22.616 3°3.243 16.0187 4.022568 31.580604 5.058817
2009-06-08 12:02:46 51°22.615 3°3.26 16.0031 4.021117 31.577625 4.954345
2009-06-08 12:03:46 51°22.616 3°3.284 16.0321 4.019561 31.574386 4.919521
2009-06-08 12:04:46 51°22.618 3°3.313 16.0746 4.022361 31.564529 4.431984
2009-06-08 12:05:46 51°22.621 3°3.348 16.0862 4.024746 31.561429 4.188216
2009-06-08 12:06:46 51°22.624 3°3.386 16.0938 4.025264 31.558843 4.04892
2009-06-08 12:07:46 51°22.629 3°3.426 16.1025 4.025472 31.554188 3.909623
2009-06-08 12:08:46 51°22.634 3°3.468 16.0959 4.025368 31.551341 3.874799
2009-06-08 12:09:46 51°22.641 3°3.471 16.0914 4.024746 31.550431 3.909623
2009-06-08 12:10:46 51°22.638 3°3.405 16.0826 4.023916 31.545121 3.805151
2009-06-08 12:11:46 51°22.626 3°3.314 16.0215 4.022049 31.5508 4.640929
2009-06-08 12:12:46 51°22.62 3°3.24 15.9789 4.017902 31.555967 5.85977
2009-06-08 12:13:46 51°22.624 3°3.21 15.9666 4.014479 31.559082 6.591076
2009-06-08 12:14:45 51°22.636 3°3.206 15.9725 4.014168 31.556356 6.6259
2009-06-08 12:15:46 51°22.649 3°3.216 15.9763 4.014687 31.555706 6.6259
2009-06-08 12:16:46 51°22.662 3°3.237 15.9969 4.014894 31.554278 6.660724
2009-06-08 12:17:46 51°22.674 3°3.264 16.0253 4.016657 31.548962 6.312483
2009-06-08 12:18:46 51°22.686 3°3.298 16.0436 4.018627 31.547414 6.138363
2009-06-08 12:19:46 51°22.698 3°3.336 16.0547 4.020079 31.546515 5.999067
2009-06-08 12:20:46 51°22.708 3°3.377 16.0536 4.020701 31.54613 5.964243
2009-06-08 12:21:46 51°22.716 3°3.419 16.0425 4.020701 31.546778 5.999067
2009-06-08 12:22:46 51°22.726 3°3.437 16.0267 4.019975 31.548198 6.103539
2009-06-08 12:23:45 51°22.716 3°3.421 16.0009 4.018627 31.551949 6.416955
2009-06-08 12:24:46 51°22.695 3°3.371 15.9814 4.016657 31.555447 7.113436
2009-06-08 12:25:46 51°22.676 3°3.318 15.9717 4.014998 31.557134 7.879566
2009-06-08 12:26:46 51°22.666 3°3.277 15.9743 4.014272 31.552072 7.809917
2009-06-08 12:27:46 51°22.662 3°3.253 15.9824 4.014583 31.551553 7.705445
2009-06-08 12:28:45 51°22.658 3°3.25 15.9836 4.01479 31.550774 7.670621
2009-06-08 12:29:46 51°22.654 3°3.259 15.9961 4.015102 31.549607 7.566149
2009-06-08 12:30:46 51°22.652 3°3.276 16.0108 4.015827 31.546885 7.322381
2009-06-08 12:31:46 51°22.653 3°3.299 16.0295 4.017279 31.544686 7.078612
2009-06-08 12:32:45 51°22.652 3°3.307 16.0413 4.018316 31.540805 6.730372
2009-06-08 12:33:46 51°22.644 3°3.261 16.0502 4.01479 31.503489 6.591076
2009-06-08 12:34:46 51°22.636 3°3.207 16.0317 4.019249 31.536669 6.869668
2009-06-08 12:35:46 51°22.632 3°3.181 16.023 4.017383 31.53782 7.287557
2009-06-08 12:36:46 51°22.634 3°3.17 16.0164 4.016864 31.537168 7.252733
2009-06-08 12:37:46 51°22.64 3°3.17 16.0086 4.016035 31.537681 7.113436
2009-06-08 12:38:46 51°22.65 3°3.179 15.9991 4.01562 31.53729 6.97414
2009-06-08 12:39:45 51°22.661 3°3.193 15.9941 4.014998 31.538324 7.008964
2009-06-08 12:40:46 51°22.673 3°3.216 15.9955 4.01479 31.537804 6.904492
2009-06-08 12:41:46 51°22.685 3°3.243 15.9949 4.014687 31.540138 6.660724
2009-06-08 12:42:46 51°22.696 3°3.273 15.9929 4.01479 31.541046 6.556251
2009-06-08 12:43:46 51°22.706 3°3.304 15.9785 4.014479 31.54286 6.6259
2009-06-08 12:44:46 51°22.714 3°3.339 15.9696 4.01365 31.544674 6.416955
2009-06-08 12:45:46 51°22.717 3°3.385 15.9604 4.012716 31.542337 6.416955
2009-06-08 12:46:46 51°22.722 3°3.407 15.9543 4.012198 31.545581 6.451779
2009-06-08 12:47:46 51°22.718 3°3.407 15.9239 4.011472 31.548957 6.591076
2009-06-08 12:48:46 51°22.709 3°3.391 15.9118 4.009502 31.553121 7.217908
2009-06-08 12:49:46 51°22.699 3°3.365 15.902 4.00888 31.554164 7.496501
2009-06-08 12:50:46 51°22.688 3°3.333 15.8941 4.007946 31.552477 7.531325
2009-06-08 12:51:46 51°22.676 3°3.3 15.8967 4.007013 31.550141 7.91439
2009-06-08 12:52:46 51°22.658 3°3.272 15.9033 4.007117 31.546498 7.949214
2009-06-08 12:53:46 51°22.647 3°3.239 15.8933 4.006702 31.542858 7.949214
2009-06-08 12:54:46 51°22.638 3°3.203 15.8864 4.005976 31.539089 8.123334
2009-06-08 12:55:46 51°22.637 3°3.179 15.8774 4.004109 31.53311 8.367102
2009-06-08 12:56:46 51°22.643 3°3.169 15.8773 4.003383 31.52934 8.332278
2009-06-08 12:57:46 51°22.654 3°3.171 15.8779 4.002865 31.526739 8.158158
2009-06-08 12:58:46 51°22.666 3°3.182 15.8779 4.002554 31.523358 8.367102
2009-06-08 12:59:46 51°22.677 3°3.199 15.873 4.002139 31.520367 8.227806
2009-06-08 13:00:46 51°22.688 3°3.22 15.8682 4.001413 31.518546 8.053686
2009-06-08 13:01:46 51°22.698 3°3.243 15.8653 4.000791 31.515684 8.297454
2009-06-08 13:02:46 51°22.706 3°3.27 15.8629 4.000168 31.512822 8.123334
2009-06-08 13:03:46 51°22.714 3°3.298 15.8604 3.999857 31.511391 7.984038
2009-06-08 13:04:46 51°22.72 3°3.327 15.8584 3.999339 31.510089 7.984038
2009-06-08 13:05:46 51°22.726 3°3.354 15.858 3.998924 31.508397 7.809917
2009-06-08 13:06:46 51°22.733 3°3.354 15.8569 3.999131 31.506967 7.809917
2009-06-08 13:07:46 51°22.719 3°3.332 15.8552 3.998924 31.507097 8.053686
2009-06-08 13:08:46 51°22.696 3°3.294 15.8537 3.998717 31.506576 8.332278
2009-06-08 13:09:46 51°22.67 3°3.248 15.8572 3.998405 31.504494 8.43675
2009-06-08 13:10:46 51°22.645 3°3.204 15.8642 3.998613 31.502414 8.401926
2009-06-08 13:11:46 51°22.636 3°3.177 15.8741 3.999235 31.501378 8.367102
2009-06-08 13:12:46 51°22.635 3°3.164 15.888 4.000168 31.501773 7.949214
2009-06-08 13:13:46 51°22.641 3°3.162 15.903 4.001205 31.50048 7.740269
2009-06-08 13:14:46 51°22.65 3°3.17 15.9141 4.002346 31.501398 7.600973
2009-06-08 13:15:46 51°22.66 3°3.183 15.921 4.003486 31.502315 7.357205
2009-06-08 13:16:46 51°22.671 3°3.2 15.9275 4.004005 31.501022 7.14826
2009-06-08 13:17:46 51°22.681 3°3.221 15.9357 4.004835 31.501808 7.078612
2009-06-08 13:18:46 51°22.689 3°3.242 15.9429 4.005457 31.501425 6.834844
2009-06-08 13:19:46 51°22.697 3°3.263 15.9481 4.006079 31.502339 6.765196
2009-06-08 13:20:46 51°22.704 3°3.287 15.9493 4.00639 31.502472 6.451779
2009-06-08 13:21:46 51°22.709 3°3.312 15.9556 4.006805 31.502865 6.451779
2009-06-08 13:22:46 51°22.714 3°3.339 15.9582 4.007116 31.503646 6.382131
2009-06-08 13:23:46 51°22.721 3°3.339 15.9613 4.007323 31.503519 6.312483
2009-06-08 13:24:46 51°22.71 3°3.321 15.9603 4.007634 31.503652 6.347307
2009-06-08 13:25:46 51°22.69 3°3.287 15.9599 4.007738 31.503264 6.556251
2009-06-08 13:26:46 51°22.667 3°3.241 15.958 4.007427 31.502483 6.869668
2009-06-08 13:27:46 51°22.648 3°3.197 15.9549 4.007116 31.501702 7.043788
2009-06-08 13:28:46 51°22.637 3°3.172 15.9536 4.006908 31.500532 7.078612
2009-06-08 13:29:46 51°22.632 3°3.159 15.953 4.006805 31.500272 7.14826
2009-06-08 13:30:46 51°22.634 3°3.168 15.9539 4.006701 31.500012 7.043788
2009-06-08 13:31:46 51°22.63 3°3.153 15.9584 4.006597 31.499103 7.008964
2009-06-08 13:32:46 51°22.623 3°3.128 15.95 4.006701 31.498715 7.113436
2009-06-08 13:33:46 51°22.614 3°3.096 15.9508 4.006079 31.497152 7.426853
2009-06-08 13:34:46 51°22.602 3°3.056 15.9549 4.006079 31.495208 7.287557
2009-06-08 13:35:46 51°22.588 3°3.029 15.9556 4.006183 31.495468 7.426853
2009-06-08 13:36:46 51°22.584 3°3.018 15.9632 4.006286 31.494432 7.357205
2009-06-08 13:37:46 51°22.587 3°3.018 15.9636 4.006908 31.495348 7.252733
2009-06-08 13:38:46 51°22.592 3°3.024 15.9642 4.00722 31.495481 6.97414
2009-06-08 13:39:46 51°22.6 3°3.032 15.9673 4.007427 31.49665 6.869668
2009-06-08 13:40:46 51°22.597 3°3 15.9717 4.007531 31.495615 6.695548
2009-06-08 13:41:46 51°22.561 3°2.938 15.9649 4.007945 31.495362 6.730372
2009-06-08 13:42:46 51°22.517 3°2.854 15.9588 4.007323 31.497038 6.939316
2009-06-08 13:43:46 51°22.47 3°2.763 15.9637 4.007012 31.496256 7.113436
2009-06-08 13:44:46 51°22.416 3°2.656 15.9597 4.007427 31.497946 7.322381
2009-06-08 13:45:46 51°22.334 3°2.49 15.9637 4.007531 31.498855 7.496501
2009-06-08 13:46:46 51°22.236 3°2.291 15.956 4.007531 31.500799 8.08851
2009-06-08 13:47:46 51°22.132 3°2.075 15.9444 4.00639 31.498582 8.367102
2009-06-08 13:48:46 51°22.026 3°1.861 15.9492 4.005249 31.492475 7.91439
2009-06-08 13:49:46 51°21.92 3°1.647 15.9506 4.002864 31.469631 7.566149
2009-06-08 13:50:46 51°21.812 3°1.435 15.9316 3.998715 31.435229 7.008964
2009-06-08 13:51:46 51°21.707 3°1.216 15.9124 3.993426 31.406999 6.765196
2009-06-08 13:52:46 51°21.601 3°0.997 15.9097 3.990004 31.387352 6.591076
2009-06-08 13:53:46 51°21.493 3°0.783 15.9188 3.989382 31.379312 6.277659
2009-06-08 13:54:46 51°21.387 3°0.568 15.9297 3.990419 31.379351 5.999067
2009-06-08 13:55:46 51°21.282 3°0.349 15.9365 3.991559 31.382884 5.755298
2009-06-08 13:56:46 51°21.175 3°0.132 15.9457 3.992908 31.390818 5.616002
2009-06-08 13:57:46 51°21.069 2°59.914 15.953 3.994567 31.400183 5.476706
2009-06-08 13:58:46 51°20.965 2°59.69 15.9443 3.995708 31.40759 5.546354
2009-06-08 13:59:46 51°20.859 2°59.473 15.9493 3.99633 31.414334 5.51153
2009-06-08 14:00:46 51°20.754 2°59.258 15.9535 3.998508 31.426944 5.372234
2009-06-08 14:01:46 51°20.649 2°59.044 15.9512 3.999338 31.438092 5.407058
2009-06-08 14:02:46 51°20.547 2°58.827 15.9497 4.000271 31.445622 5.372234
2009-06-08 14:03:46 51°20.442 2°58.611 15.9588 4.001516 31.457171 5.302586
2009-06-08 14:04:46 51°20.339 2°58.39 15.9589 4.003175 31.465233 5.372234
2009-06-08 14:05:46 51°20.233 2°58.173 15.9574 4.003797 31.470684 5.407058
2009-06-08 14:06:46 51°20.127 2°57.956 15.9651 4.00473 31.477565 5.407058
2009-06-08 14:07:46 51°20.02 2°57.739 15.9494 4.005042 31.480938 5.51153
2009-06-08 14:08:46 51°19.917 2°57.516 15.9473 4.005145 31.486382 5.51153
2009-06-08 14:09:46 51°19.812 2°57.295 15.9399 4.004834 31.488192 5.650826
2009-06-08 14:10:46 51°19.707 2°57.072 15.938 4.004731 31.493117 5.68565
2009-06-08 14:11:46 51°19.605 2°56.846 15.9321 4.005457 31.500776 5.824946
2009-06-08 14:12:46 51°19.499 2°56.622 15.9409 4.006598 31.513371 5.999067
2009-06-08 14:13:46 51°19.396 2°56.395 15.9288 4.008361 31.528177 6.173187
2009-06-08 14:14:46 51°19.29 2°56.172 15.9285 4.009917 31.547011 6.347307
2009-06-08 14:15:46 51°19.186 2°55.945 15.9247 4.011991 31.567149 6.6259
2009-06-08 14:16:46 51°19.082 2°55.718 15.9259 4.013547 31.582744 6.695548
2009-06-08 14:17:46 51°18.983 2°55.488 15.9092 4.01531 31.604067 7.043788
2009-06-08 14:18:46 51°18.887 2°55.25 15.9003 4.016347 31.621635 7.287557
2009-06-08 14:19:46 51°18.791 2°55.012 15.8832 4.017488 31.636211 7.461677
2009-06-08 14:20:46 51°18.698 2°54.771 15.8716 4.018214 31.65237 7.705445
2009-06-08 14:21:46 51°18.586 2°54.553 15.8647 4.020081 31.680521 8.053686
2009-06-08 14:22:46 51°18.442 2°54.393 15.8596 4.022985 31.709303 8.332278
2009-06-08 14:23:46 51°18.292 2°54.242 15.8493 4.025164 31.740228 8.576047
2009-06-08 14:24:46 51°18.152 2°54.071 15.8278 4.027342 31.770523 8.924287
2009-06-08 14:25:46 51°18.016 2°53.892 15.8 4.028379 31.796717 9.133231
2009-06-08 14:26:46 51°17.879 2°53.715 15.794 4.030143 31.826044 9.481472
2009-06-08 14:27:46 51°17.743 2°53.537 15.7965 4.033151 31.86043 9.516296
2009-06-08 14:28:46 51°17.608 2°53.355 15.8219 4.037403 31.885357 9.55112
2009-06-08 14:29:46 51°17.469 2°53.182 15.8562 4.042796 31.907789 9.516296
2009-06-08 14:30:46 51°17.313 2°53.049 15.8676 4.047774 31.935117 9.377
2009-06-08 14:31:46 51°17.154 2°52.923 15.8782 4.050679 31.951434 9.411824
2009-06-08 14:32:46 51°16.985 2°52.832 15.8639 4.051197 31.95204 9.411824
2009-06-08 14:33:46 51°16.807 2°52.875 15.8316 4.049745 31.950476 9.446648
2009-06-08 14:34:46 51°16.637 2°53.003 15.782 4.047568 31.976198 9.899361
2009-06-08 14:35:46 51°16.466 2°53.128 15.7773 4.044353 31.97101 9.620768
2009-06-08 14:36:46 51°16.294 2°53.252 15.827 4.03118 31.842417 8.227806
2009-06-08 14:37:46 51°16.12 2°53.362 15.8533 4.016348 31.675171 6.904492
2009-06-08 14:38:46 51°15.945 2°53.471 15.8739 4.004732 31.561353 5.929418
2009-06-08 14:39:46 51°15.768 2°53.581 15.9015 3.994671 31.450945 5.407058
2009-06-08 14:40:46 51°15.591 2°53.683 16.1443 1.98985 14.601917 1.158523
2009-06-08 14:41:46 51°15.411 2°53.779 16.2028 1.981382 14.534463 1.123699
2009-06-08 14:42:46 51°15.228 2°53.855 16.3001 1.97911 14.515994 1.158523
2009-06-08 14:43:46 51°15.048 2°53.937 16.3762 1.975392 14.486265 1.123699
2009-06-08 14:44:46 51°14.883 2°54.056 16.458 1.974979 14.481775 1.158523
2009-06-08 14:45:46 51°14.756 2°54.232 16.532 1.973326 14.466788 1.158523
2009-06-08 14:46:46 51°14.643 2°54.41 16.6212 1.972294 14.456461 1.158523
2009-06-08 14:47:46 51°14.536 2°54.612 16.7031 1.9725 14.455448 1.158523
2009-06-08 14:48:46 51°14.434 2°54.832 16.7791 1.9725 14.45249 1.158523
2009-06-08 14:49:46 51°14.342 2°55.059 16.8639 1.97157 14.440337 1.158523
2009-06-08 14:50:46 51°14.261 2°55.244 16.9402 1.971364 14.435144 1.158523
2009-06-08 14:51:46 51°14.168 2°55.371 16.9955 1.97188 14.435724 1.158523
2009-06-08 14:52:46 51°14.049 2°55.462 17.0745 1.972396 14.436008 1.158523
2009-06-08 14:53:46 51°13.93 2°55.549 17.1305 1.971983 14.428584 1.158523
2009-06-08 14:54:46 51°13.822 2°55.632 17.1961 1.972293 14.427813 1.158523
2009-06-08 14:55:46 51°13.745 2°55.736 17.2431 1.9725 14.426513 1.158523
2009-06-08 14:56:50 51°13.689 2°55.843 17.3083 1.972913 14.426567 1.158523
2009-06-08 14:57:50 51°13.666 2°55.929 17.3272 1.972913 14.423328 1.158523